Aérodrome :
LOGIN :

S'inscrire | Disclaimer

   EN    FR    IT 

 










Légende :    VFR   VFR Marginal   IFR   IFR Intensif   IFR Très Intensif
Visi : 
Plafond : 
>= 8 km
>= 3000ft
5 à 8 km
1000 à 3000 ft
1500m à 5 km
500 à 1000 ft
800 à 1500m
200 à 500 ft
< 800m
< 200 ft
Symboles :   Orages  Brouillard  Fortes neiges  Fortes précipitations  Vent > 20 kt
SIGMETs :   Divers  Orages  Givrage  Turbulence  Onde Orograph.  Cendres Volcan.







- Altitude de l'aérodrome : 160 ft
- Code IATA : LRT
- Voir les cartes d'approche


LFRH - Lorient Lann Bihoue

DERNIER METAR :
  • 230330Z AUTO 05003KT CAVOK 15/14 Q1018 TEMPO 4000 BR

METARs EXPIRÉS :
  • 230300Z AUTO 06004KT CAVOK 15/15 Q1019 TEMPO 4000 BR
  • 230230Z AUTO 05004KT CAVOK 15/15 Q1019 TEMPO 4000 BR
  • 230200Z AUTO 06004KT CAVOK 16/15 Q1019 TEMPO 4000 BR
  • 230130Z AUTO 06004KT CAVOK 16/15 Q1019 TEMPO 4000 BR
  • 230100Z AUTO 06004KT CAVOK 16/15 Q1019 NOSIG

TAF TAF LFRH
Valide du 22 à 18h jusqu'au 23 à 18h UTC


221700Z 2218/2318 26010KT CAVOK
BECMG 2222/2224 04005KT NSC
PROB30
TEMPO 2303/2306 4000 BR
BECMG 2310/2312 20010KT CAVOK
Pas de NOTAMs connus pour ce terrain.



MET'MAP, la Météo Aéronautique d'un coup d'oeil ! - Copyright ORBIFLY Décembre 2007 - Disclaimer

ORBIFLY MET'MAP TEAM :

Programmation & Développement : Alexandra Zaïnal
Conception & Développement : Baudouin d'Aumeries
Co-Programmation & Développement : Marc-Olivier Méhu
Soutien technique & logistique : Manuel Goepfert

Contact : metmap@orbifly.com




SOURCES & CREDITS :

   NOAA